Time;durP1;ratioP1;P1;durP2;ratioP2;P2;SDS_P1;SDS_P2;PMS_P1;PMS_P2;Temp;Humidity;BMP_temperature;BMP_pressure;BME280_temperature;BME280_humidity;BME280_pressure;Samples;Min_cycle;Max_cycle;Signal;HPM_P1;HPM_P2
2021/07/03 00:00:12;;;;;;;1.15;0.60;;;;;;;36.27;17.61;94205.72;5056613;28;20040;-71
2021/07/03 00:02:39;;;;;;;1.83;0.70;;;;;;;36.75;16.92;94212.13;5055677;28;20056;-72
2021/07/03 00:05:07;;;;;;;2.40;0.70;;;;;;;36.47;17.45;94216.91;5057067;28;20048;-72
2021/07/03 00:07:34;;;;;;;2.00;0.52;;;;;;;37.01;16.83;94212.53;5056672;28;20056;-71
2021/07/03 00:10:02;;;;;;;1.98;0.52;;;;;;;36.65;16.95;94219.56;5056179;28;20045;-72
2021/07/03 00:12:29;;;;;;;0.82;0.50;;;;;;;36.35;17.29;94209.66;5055500;28;20052;-71
2021/07/03 00:14:56;;;;;;;0.90;0.50;;;;;;;36.36;17.81;94217.34;5056117;28;20056;-72
2021/07/03 00:17:23;;;;;;;1.30;0.70;;;;;;;36.74;17.45;94216.81;5056481;28;20363;-72
2021/07/03 00:19:51;;;;;;;1.50;0.50;;;;;;;36.36;17.55;94219.31;5056176;28;20079;-71
2021/07/03 00:22:18;;;;;;;4.85;1.77;;;;;;;36.44;17.64;94220.53;5056387;28;20053;-72
2021/07/03 00:24:45;;;;;;;1.10;0.63;;;;;;;36.48;17.45;94226.56;5056382;28;20063;-71
2021/07/03 00:27:12;;;;;;;1.92;0.70;;;;;;;36.60;17.32;94222.91;5056125;28;20382;-72
2021/07/03 00:29:39;;;;;;;0.93;0.60;;;;;;;36.77;17.11;94226.03;5035834;28;20440;-71
2021/07/03 00:32:06;;;;;;;1.35;0.80;;;;;;;36.26;17.85;94215.09;5040644;28;20053;-72
2021/07/03 00:34:33;;;;;;;4.75;0.73;;;;;;;36.57;17.32;94225.78;5055690;28;20083;-72
2021/07/03 00:37:01;;;;;;;1.48;0.70;;;;;;;36.29;17.60;94225.06;5056068;28;20047;-72
2021/07/03 00:39:28;;;;;;;1.95;0.70;;;;;;;36.32;17.61;94235.06;5054891;28;20048;-73
2021/07/03 00:41:56;;;;;;;0.88;0.50;;;;;;;36.27;17.63;94224.75;5054548;28;20049;-72
2021/07/03 00:44:28;;;;;;;2.50;0.77;;;;;;;36.36;17.50;94230.22;5055756;28;20482;-73
2021/07/03 00:46:56;;;;;;;1.75;0.60;;;;;;;36.42;17.65;94228.38;5054534;28;20064;-71
2021/07/03 00:49:24;;;;;;;1.02;0.70;;;;;;;36.53;17.40;94228.69;5054406;28;20048;-72
2021/07/03 00:51:51;;;;;;;1.08;0.60;;;;;;;36.30;17.78;94232.78;5055103;28;20044;-72
2021/07/03 00:54:21;;;;;;;2.17;0.70;;;;;;;36.10;17.83;94229.75;5054594;28;20045;-71
2021/07/03 00:57:01;;;;;;;1.00;0.50;;;;;;;36.49;17.57;94236.25;5054314;28;20387;-72
2021/07/03 00:59:35;;;;;;;1.85;0.60;;;;;;;35.95;18.03;94232.34;5054308;28;20474;-70
2021/07/03 01:02:06;;;;;;;1.63;0.60;;;;;;;35.98;18.12;94231.41;5054267;28;20056;-71
2021/07/03 01:04:35;;;;;;;1.17;0.73;;;;;;;36.36;17.51;94230.22;5054005;28;20056;-70
2021/07/03 01:07:04;;;;;;;1.27;0.60;;;;;;;35.98;18.08;94225.97;5054557;28;20447;-70
2021/07/03 01:09:31;;;;;;;0.70;0.50;;;;;;;36.16;17.93;94233.38;5055896;28;20045;-70
2021/07/03 01:11:59;;;;;;;0.93;0.70;;;;;;;36.31;17.66;94228.84;5055564;28;20041;-71
2021/07/03 01:14:27;;;;;;;0.90;0.55;;;;;;;36.32;17.31;94230.38;5055048;28;20471;-70
2021/07/03 01:16:55;;;;;;;0.98;0.50;;;;;;;36.08;17.85;94227.47;5053233;28;20455;-71
2021/07/03 01:19:23;;;;;;;1.15;0.65;;;;;;;36.08;18.05;94227.47;5055175;28;20052;-70
2021/07/03 01:21:55;;;;;;;1.30;0.70;;;;;;;36.10;18.00;94230.50;5054958;28;20073;-70
2021/07/03 01:24:24;;;;;;;2.88;0.57;;;;;;;35.62;18.41;94228.63;5053710;28;20056;-70
2021/07/03 01:26:53;;;;;;;1.50;0.80;;;;;;;36.08;17.94;94229.44;5046326;28;20395;-71
2021/07/03 01:29:23;;;;;;;1.23;0.60;;;;;;;36.07;17.82;94225.22;5051403;28;20053;-71
2021/07/03 01:31:54;;;;;;;0.70;0.52;;;;;;;36.22;17.41;94219.94;5053111;28;20075;-71
2021/07/03 01:34:25;;;;;;;1.75;0.60;;;;;;;36.26;17.57;94223.25;5053767;28;20049;-70
2021/07/03 01:36:53;;;;;;;1.42;0.70;;;;;;;35.78;18.10;94220.94;5053544;28;20049;-70
2021/07/03 01:39:21;;;;;;;1.70;0.45;;;;;;;35.91;17.91;94223.53;5054390;28;20052;-70
2021/07/03 01:41:49;;;;;;;2.67;0.63;;;;;;;35.92;17.59;94214.22;5054901;28;20054;-70
2021/07/03 01:44:29;;;;;;;1.10;0.57;;;;;;;36.35;17.24;94212.38;5048489;28;20045;-71
2021/07/03 01:46:59;;;;;;;2.15;0.60;;;;;;;36.09;17.21;94212.66;5054432;28;20227;-70
2021/07/03 01:49:38;;;;;;;0.80;0.50;;;;;;;35.91;17.41;94211.91;5054670;28;20045;-70
2021/07/03 01:52:07;;;;;;;0.70;0.60;;;;;;;35.88;17.25;94213.56;5054942;28;20049;-71
2021/07/03 01:54:36;;;;;;;1.27;0.47;;;;;;;35.91;17.43;94220.06;5053438;28;20041;-70
2021/07/03 01:57:05;;;;;;;2.85;0.60;;;;;;;36.13;17.05;94213.25;5054527;28;20044;-70
2021/07/03 01:59:53;;;;;;;2.22;0.98;;;;;;;36.00;17.43;94209.22;5033836;28;20052;-70
2021/07/03 02:02:22;;;;;;;2.47;0.65;;;;;;;35.58;17.65;94201.59;5033617;28;20057;-70
2021/07/03 02:04:51;;;;;;;0.73;0.60;;;;;;;35.58;17.52;94200.84;5043022;28;20052;-69
2021/07/03 02:07:19;;;;;;;1.63;0.88;;;;;;;35.73;17.41;94204.50;5053347;28;20057;-69
2021/07/03 02:09:47;;;;;;;0.80;0.60;;;;;;;35.81;17.30;94208.41;5053729;28;20051;-70
2021/07/03 02:12:14;;;;;;;0.60;0.50;;;;;;;35.51;17.73;94202.66;5053376;28;20362;-70
2021/07/03 02:15:05;;;;;;;1.10;0.60;;;;;;;35.57;17.51;94204.75;5054116;28;20049;-70
2021/07/03 02:17:36;;;;;;;1.88;1.00;;;;;;;35.72;17.22;94208.41;5054696;28;20356;-70
2021/07/03 02:20:10;;;;;;;1.20;0.63;;;;;;;35.36;17.61;94201.69;5053288;28;20045;-69
2021/07/03 02:23:09;;;;;;;1.35;0.75;;;;;;;35.63;17.42;94203.72;5042389;28;20065;-69
2021/07/03 02:25:37;;;;;;;1.13;0.77;;;;;;;35.82;17.33;94201.75;5053176;28;20055;-70
2021/07/03 02:28:10;;;;;;;1.10;0.80;;;;;;;35.95;17.30;94196.97;5054091;28;20420;-70
2021/07/03 02:30:45;;;;;;;1.90;0.80;;;;;;;35.76;17.21;94203.59;5057176;28;20049;-70
2021/07/03 02:33:14;;;;;;;1.50;0.90;;;;;;;35.00;17.99;94202.34;5057349;28;20049;-70
2021/07/03 02:35:44;;;;;;;1.17;0.60;;;;;;;35.47;17.64;94207.47;5056521;28;20056;-70
2021/07/03 02:38:12;;;;;;;2.47;0.90;;;;;;;35.59;17.54;94224.09;5057140;28;20056;-70
2021/07/03 02:40:41;;;;;;;0.93;0.70;;;;;;;35.64;17.36;94220.78;5056897;28;20451;-70
2021/07/03 02:43:09;;;;;;;1.25;0.70;;;;;;;35.68;17.54;94216.72;5057387;28;20056;-70
2021/07/03 02:45:38;;;;;;;1.60;0.80;;;;;;;35.67;17.61;94225.34;5056630;28;20051;-69
2021/07/03 02:48:05;;;;;;;0.98;0.77;;;;;;;35.80;17.46;94223.22;5037326;28;20057;-70
2021/07/03 02:50:33;;;;;;;1.10;0.80;;;;;;;35.21;17.72;94227.91;5037758;28;20080;-70
2021/07/03 02:53:04;;;;;;;1.85;0.90;;;;;;;35.58;17.72;94228.03;5037858;28;20056;-70
2021/07/03 02:55:32;;;;;;;1.73;0.88;;;;;;;35.56;17.77;94233.91;5050106;28;20052;-70
2021/07/03 02:57:59;;;;;;;1.30;0.80;;;;;;;35.59;17.59;94224.84;5056719;28;20053;-69
2021/07/03 03:00:30;;;;;;;1.58;1.00;;;;;;;35.31;17.96;94236.84;5057607;28;20363;-69
2021/07/03 03:02:57;;;;;;;1.17;0.80;;;;;;;35.56;17.79;94233.16;5056790;28;20367;-70
2021/07/03 03:05:25;;;;;;;1.75;0.90;;;;;;;35.53;17.82;94243.72;5056168;28;20522;-69
2021/07/03 03:07:52;;;;;;;2.80;1.00;;;;;;;35.37;17.86;94246.69;5056804;28;20447;-71
2021/07/03 03:10:21;;;;;;;1.70;1.10;;;;;;;35.28;17.98;94241.22;5056675;28;20060;-70
2021/07/03 03:12:50;;;;;;;2.60;1.20;;;;;;;35.42;17.77;94243.41;5057423;28;20048;-70
2021/07/03 03:15:21;;;;;;;2.65;1.10;;;;;;;35.41;17.95;94249.28;5056143;28;20049;-71
2021/07/03 03:17:50;;;;;;;2.75;1.08;;;;;;;35.37;18.03;94251.38;5056164;28;20045;-71
2021/07/03 03:20:17;;;;;;;2.67;1.30;;;;;;;35.25;18.15;94261.13;5056285;28;20048;-71
2021/07/03 03:22:44;;;;;;;2.17;1.05;;;;;;;35.65;17.60;94254.91;5057439;28;20056;-71
2021/07/03 03:25:14;;;;;;;1.20;1.00;;;;;;;35.54;17.76;94266.97;5056226;28;20045;-71
2021/07/03 03:27:42;;;;;;;1.35;1.08;;;;;;;35.65;17.67;94265.78;5056628;28;20049;-71
2021/07/03 03:30:11;;;;;;;1.70;1.02;;;;;;;35.53;17.78;94265.47;5055952;28;20439;-70
2021/07/03 03:32:42;;;;;;;1.83;1.10;;;;;;;36.01;17.17;94265.88;5055960;28;20052;-70
2021/07/03 03:35:10;;;;;;;3.95;1.00;;;;;;;35.83;17.47;94271.28;5057141;28;20048;-72
2021/07/03 03:37:38;;;;;;;1.92;1.00;;;;;;;35.82;17.60;94275.19;5055889;28;20049;-70
2021/07/03 03:40:08;;;;;;;3.83;1.20;;;;;;;35.94;17.56;94271.63;5055537;28;20037;-69
2021/07/03 03:42:36;;;;;;;1.52;1.27;;;;;;;35.98;17.79;94269.50;5055936;28;20060;-71
2021/07/03 03:45:08;;;;;;;3.25;1.40;;;;;;;35.79;18.09;94265.97;5056894;28;20040;-71
2021/07/03 03:47:36;;;;;;;2.03;1.25;;;;;;;36.05;17.65;94269.19;5047413;28;20068;-71
2021/07/03 03:50:07;;;;;;;2.08;1.10;;;;;;;35.90;17.80;94265.53;5050120;28;20450;-69
2021/07/03 03:52:34;;;;;;;2.60;1.45;;;;;;;35.96;17.83;94263.00;5051210;28;20063;-75
2021/07/03 03:55:03;;;;;;;1.90;1.30;;;;;;;36.05;17.71;94263.75;5052815;28;20052;-59
2021/07/03 03:57:31;;;;;;;1.60;1.10;;;;;;;36.01;17.93;94265.88;5054611;28;20049;-56
2021/07/03 04:00:07;;;;;;;2.30;1.10;;;;;;;36.06;17.99;94270.69;5056218;28;20037;-65
2021/07/03 04:02:42;;;;;;;1.92;1.30;;;;;;;35.96;18.01;94269.19;5056452;28;20049;-62
2021/07/03 04:05:10;;;;;;;2.72;1.30;;;;;;;36.40;17.91;94268.91;5056339;28;20053;-68
2021/07/03 04:07:40;;;;;;;3.20;1.40;;;;;;;36.62;17.32;94274.16;5040640;28;20072;-62
2021/07/03 04:10:10;;;;;;;2.00;1.50;;;;;;;36.31;17.75;94266.19;5055139;28;20497;-64
2021/07/03 04:12:38;;;;;;;3.35;1.80;;;;;;;36.10;17.83;94263.16;5051607;28;20049;-67
2021/07/03 04:15:06;;;;;;;5.22;1.30;;;;;;;36.28;18.08;94267.84;5036550;28;20049;-70
2021/07/03 04:17:34;;;;;;;2.17;1.38;;;;;;;35.46;18.44;94263.03;5055282;28;20047;-61
2021/07/03 04:20:01;;;;;;;2.67;2.20;;;;;;;36.18;18.19;94268.31;5057660;28;20494;-70
2021/07/03 04:22:29;;;;;;;3.03;1.80;;;;;;;35.58;18.74;94271.50;5056217;28;20052;-69
2021/07/03 04:24:56;;;;;;;2.47;2.00;;;;;;;36.06;17.95;94267.97;5056199;28;20439;-70
2021/07/03 04:27:23;;;;;;;2.85;2.08;;;;;;;36.02;18.29;94272.81;5055380;28;20056;-65
2021/07/03 04:29:50;;;;;;;1.23;1.13;;;;;;;36.02;18.34;94278.25;5056196;28;20048;-66
2021/07/03 04:32:17;;;;;;;2.08;1.65;;;;;;;36.20;18.08;94265.88;5055968;28;20057;-68
2021/07/03 04:34:45;;;;;;;2.00;1.60;;;;;;;36.33;17.99;94269.22;5055102;28;20053;-66
2021/07/03 04:37:12;;;;;;;1.80;1.40;;;;;;;36.28;17.87;94267.09;5055217;28;20052;-69
2021/07/03 04:39:39;;;;;;;1.85;1.45;;;;;;;36.76;17.33;94273.56;5055737;28;20463;-72
2021/07/03 04:42:06;;;;;;;2.92;1.50;;;;;;;36.73;17.71;94269.03;5038340;28;20041;-66
2021/07/03 04:44:33;;;;;;;1.67;1.23;;;;;;;36.68;17.77;94266.88;5035756;28;20057;-72
2021/07/03 04:47:00;;;;;;;1.77;1.20;;;;;;;36.57;17.62;94277.50;5049084;28;20057;-59
2021/07/03 04:49:32;;;;;;;6.13;5.28;;;;;;;35.48;18.99;94268.78;5055115;28;20056;-50
2021/07/03 04:52:59;;;;;;;3.60;1.60;;;;;;;32.63;22.64;94277.50;5115879;27;20121;-51
2021/07/03 04:55:51;;;;;;;3.30;2.00;;;;;;;34.53;20.00;94281.25;5113093;28;20040;-69
2021/07/03 04:58:18;;;;;;;4.05;1.92;;;;;;;36.40;18.15;94280.53;5137819;27;20049;-69
2021/07/03 05:00:45;;;;;;;1.98;1.77;;;;;;;35.86;18.86;94281.25;5111955;28;20059;-68
2021/07/03 05:03:13;;;;;;;5.07;1.90;;;;;;;36.50;17.93;94286.75;5112720;28;20500;-70
2021/07/03 05:05:40;;;;;;;3.42;1.90;;;;;;;36.64;17.95;94280.66;5114420;28;20051;-64
2021/07/03 05:08:07;;;;;;;4.32;2.03;;;;;;;35.76;18.52;94282.44;5132754;28;20047;-67
2021/07/03 05:10:35;;;;;;;2.50;2.00;;;;;;;34.29;19.89;94278.94;5104423;28;20048;-62
2021/07/03 05:13:02;;;;;;;3.60;1.73;;;;;;;36.20;18.71;94285.69;5111787;28;20051;-66
2021/07/03 05:15:29;;;;;;;2.45;1.95;;;;;;;35.11;19.33;94281.44;5112283;28;20047;-65
2021/07/03 05:17:56;;;;;;;3.03;1.63;;;;;;;35.87;18.44;94282.75;5132193;28;20039;-63
2021/07/03 05:20:23;;;;;;;3.47;1.80;;;;;;;34.84;19.26;94282.06;5132606;28;20040;-65
2021/07/03 05:22:50;;;;;;;2.65;2.00;;;;;;;35.50;19.05;94288.09;5131820;28;20047;-73
2021/07/03 05:25:17;;;;;;;5.65;1.70;;;;;;;34.67;19.63;94282.69;5131441;28;20047;-74
2021/07/03 05:27:44;;;;;;;2.13;1.92;;;;;;;32.62;22.35;94286.81;5127282;27;20062;-74
2021/07/03 05:30:12;;;;;;;2.30;1.95;;;;;;;34.00;21.00;94281.88;5111971;28;20047;-68
2021/07/03 05:32:39;;;;;;;1.90;1.60;;;;;;;34.66;19.85;94281.94;5093918;28;20056;-75
2021/07/03 05:35:07;;;;;;;1.95;1.60;;;;;;;35.91;18.73;94285.34;5112252;28;20039;-73
2021/07/03 05:37:34;;;;;;;2.22;1.83;;;;;;;35.82;18.52;94289.56;5124192;28;20043;-73
2021/07/03 05:40:02;;;;;;;1.70;1.60;;;;;;;35.83;18.67;94287.59;5132326;28;20472;-76
2021/07/03 05:42:30;;;;;;;2.80;1.70;;;;;;;34.14;20.86;94286.06;5132599;27;20051;-75
2021/07/03 05:44:57;;;;;;;4.13;2.22;;;;;;;34.62;20.16;94292.16;5131980;28;20416;-76
2021/07/03 05:47:24;;;;;;;2.83;1.90;;;;;;;33.30;21.52;94292.97;5145851;27;20461;-75
2021/07/03 05:49:51;;;;;;;2.85;2.05;;;;;;;34.63;20.30;94299.13;5111376;28;20051;-75
2021/07/03 05:52:18;;;;;;;2.10;1.90;;;;;;;34.57;20.25;94300.84;5111464;28;20361;-75
2021/07/03 05:54:45;;;;;;;3.30;1.70;;;;;;;35.51;18.91;94289.63;5111683;28;20044;-74
2021/07/03 05:57:13;;;;;;;4.25;2.00;;;;;;;36.23;18.64;94303.06;5112688;28;20047;-75
2021/07/03 05:59:41;;;;;;;2.17;1.92;;;;;;;36.08;18.39;94303.66;5130168;28;20047;-75
2021/07/03 06:02:10;;;;;;;3.63;2.38;;;;;;;34.15;20.67;94295.72;5119849;28;20353;-76
2021/07/03 06:04:37;;;;;;;2.85;1.95;;;;;;;35.06;19.84;94303.00;5097589;28;20048;-74
2021/07/03 06:07:04;;;;;;;2.55;2.00;;;;;;;36.01;18.65;94305.91;5105491;28;20040;-75
2021/07/03 06:09:32;;;;;;;3.38;2.03;;;;;;;36.55;18.49;94307.91;5110542;28;20059;-75
2021/07/03 06:11:59;;;;;;;2.40;1.95;;;;;;;36.70;18.15;94303.38;5096942;28;20450;-75
2021/07/03 06:14:26;;;;;;;2.42;1.85;;;;;;;36.86;17.83;94298.81;5097738;28;20052;-75
2021/07/03 06:16:53;;;;;;;4.28;1.70;;;;;;;37.35;17.24;94307.47;5089582;28;20039;-75
2021/07/03 06:19:21;;;;;;;2.45;1.70;;;;;;;37.11;17.82;94303.13;5116532;28;20330;-75
2021/07/03 06:21:48;;;;;;;2.05;1.60;;;;;;;37.29;17.72;94295.69;5116805;28;20050;-74
2021/07/03 06:24:15;;;;;;;2.30;1.80;;;;;;;37.71;17.29;94300.34;5115569;28;20047;-74
2021/07/03 06:26:42;;;;;;;2.67;1.88;;;;;;;37.86;16.67;94300.41;5105421;28;20043;-75
2021/07/03 06:29:10;;;;;;;2.00;1.55;;;;;;;37.90;17.06;94304.47;5119778;27;20043;-75
2021/07/03 06:31:37;;;;;;;2.88;1.75;;;;;;;37.92;16.67;94299.31;5117706;28;20051;-75
2021/07/03 06:34:04;;;;;;;2.05;1.80;;;;;;;37.79;17.11;94306.97;5116754;28;20062;-75
2021/07/03 06:36:31;;;;;;;3.67;1.70;;;;;;;37.64;17.37;94303.38;5109042;28;20062;-74
2021/07/03 06:38:58;;;;;;;2.17;1.90;;;;;;;38.30;16.66;94308.78;5117368;28;20046;-75
2021/07/03 06:41:25;;;;;;;2.42;1.80;;;;;;;37.67;16.98;94307.91;5117462;28;20050;-73
2021/07/03 06:43:52;;;;;;;1.83;1.58;;;;;;;37.85;16.66;94315.28;5117484;28;20050;-75
2021/07/03 06:46:19;;;;;;;5.50;1.95;;;;;;;37.31;17.04;94317.78;5116971;28;20047;-74
2021/07/03 06:48:46;;;;;;;2.22;1.70;;;;;;;37.82;17.23;94322.41;5099260;28;20047;-73
2021/07/03 06:51:14;;;;;;;1.90;1.52;;;;;;;37.32;17.19;94311.13;5117078;28;20055;-74
2021/07/03 06:53:41;;;;;;;2.75;1.80;;;;;;;37.10;17.50;94316.00;5112960;28;20056;-74
2021/07/03 06:56:08;;;;;;;3.97;2.03;;;;;;;37.10;17.36;94316.00;5081094;28;20065;-74
2021/07/03 06:58:35;;;;;;;2.15;1.63;;;;;;;37.02;17.25;94317.56;5120425;27;20047;-73
2021/07/03 07:01:02;;;;;;;2.63;2.00;;;;;;;36.99;17.53;94313.03;5117109;28;20074;-74
2021/07/03 07:03:29;;;;;;;2.72;1.80;;;;;;;36.88;17.40;94312.72;5117263;28;20052;-74
2021/07/03 07:05:56;;;;;;;6.10;1.90;;;;;;;37.67;16.50;94310.66;5116755;28;20066;-75
2021/07/03 07:08:23;;;;;;;2.67;1.70;;;;;;;37.32;17.00;94311.13;5116801;28;20362;-72
2021/07/03 07:10:50;;;;;;;3.15;2.28;;;;;;;37.54;16.68;94305.41;5116756;28;20047;-74
2021/07/03 07:13:17;;;;;;;3.17;1.73;;;;;;;37.45;17.50;94302.72;5116937;28;20369;-74
2021/07/03 07:15:44;;;;;;;2.30;1.90;;;;;;;37.19;17.79;94301.59;5115094;27;20357;-74
2021/07/03 07:18:11;;;;;;;3.97;1.90;;;;;;;37.33;17.11;94301.72;5116653;28;20047;-74
2021/07/03 07:20:38;;;;;;;3.78;1.83;;;;;;;36.97;17.02;94304.56;5116525;28;20041;-74
2021/07/03 07:23:06;;;;;;;1.90;1.73;;;;;;;37.75;16.09;94306.41;5116323;28;20043;-75
2021/07/03 07:25:33;;;;;;;2.20;1.48;;;;;;;36.98;16.47;94295.16;5097929;28;20047;-74
2021/07/03 07:28:00;;;;;;;2.47;1.70;;;;;;;37.09;16.60;94300.88;5115858;28;20051;-74
2021/07/03 07:30:27;;;;;;;4.00;1.98;;;;;;;36.96;16.97;94305.75;5115472;28;20048;-74
2021/07/03 07:32:54;;;;;;;1.92;1.70;;;;;;;37.47;16.27;94302.25;5116928;27;20046;-75
2021/07/03 07:35:21;;;;;;;2.45;1.40;;;;;;;37.41;16.38;94309.56;5098240;28;20055;-75
2021/07/03 07:37:49;;;;;;;5.50;1.90;;;;;;;37.86;16.53;94306.63;5115132;28;20492;-75
2021/07/03 07:40:18;;;;;;;2.42;1.58;;;;;;;37.58;16.43;94305.25;5116208;28;20047;-75
2021/07/03 07:42:45;;;;;;;1.92;1.50;;;;;;;37.11;16.82;94312.06;5115390;28;20372;-75
2021/07/03 07:45:13;;;;;;;2.67;1.40;;;;;;;36.71;17.10;94304.88;5116393;28;20044;-74
2021/07/03 07:47:40;;;;;;;1.90;1.50;;;;;;;36.86;16.83;94304.25;5117368;27;20045;-76
2021/07/03 07:50:08;;;;;;;2.08;1.40;;;;;;;37.33;16.90;94306.41;5115394;28;20055;-74
2021/07/03 07:52:36;;;;;;;1.77;1.40;;;;;;;37.65;16.21;94302.16;5116246;28;20058;-75
2021/07/03 07:55:03;;;;;;;3.95;1.70;;;;;;;37.37;16.46;94306.25;5116716;28;20460;-75
2021/07/03 07:57:30;;;;;;;2.15;1.60;;;;;;;37.47;16.69;94305.75;5100399;27;20050;-74
2021/07/03 07:59:57;;;;;;;2.17;1.58;;;;;;;38.02;16.41;94308.22;5117582;27;20039;-75
2021/07/03 08:02:24;;;;;;;3.83;1.60;;;;;;;37.66;16.82;94311.88;5115008;28;20040;-75
2021/07/03 08:04:51;;;;;;;2.40;1.52;;;;;;;37.72;16.44;94328.38;5115907;28;20039;-74
2021/07/03 08:07:18;;;;;;;2.30;1.70;;;;;;;37.56;16.02;94326.75;5114817;28;20364;-74
2021/07/03 08:09:46;;;;;;;2.38;1.60;;;;;;;37.58;16.00;94313.44;5115427;28;20133;-74
2021/07/03 08:12:13;;;;;;;2.13;1.67;;;;;;;36.80;16.97;94306.09;5106138;28;20051;-75
2021/07/03 08:14:40;;;;;;;1.88;1.42;;;;;;;37.47;16.40;94315.88;5095469;28;20040;-75
2021/07/03 08:17:09;;;;;;;2.03;1.38;;;;;;;37.59;16.73;94314.94;5109831;27;20051;-75
2021/07/03 08:19:38;;;;;;;2.58;1.70;;;;;;;37.10;17.42;94307.84;5114251;28;20050;-74
2021/07/03 08:22:05;;;;;;;2.63;1.58;;;;;;;37.20;16.49;94306.56;5115607;28;20054;-75
2021/07/03 08:24:32;;;;;;;1.95;1.67;;;;;;;37.22;16.83;94315.06;5115138;28;20047;-74
2021/07/03 08:26:59;;;;;;;2.40;1.45;;;;;;;36.64;17.41;94313.34;5115049;28;20059;-75
2021/07/03 08:29:26;;;;;;;2.83;1.58;;;;;;;36.75;17.54;94304.72;5121482;27;20047;-75
2021/07/03 08:31:53;;;;;;;4.47;1.67;;;;;;;36.90;17.01;94304.84;5115456;28;20039;-76
2021/07/03 08:34:20;;;;;;;7.53;4.80;;;;;;;37.06;17.10;94293.63;5115551;28;20047;-73
2021/07/03 08:36:48;;;;;;;5.30;3.03;;;;;;;37.03;17.38;94305.44;5115449;28;20039;-75
2021/07/03 08:39:15;;;;;;;5.40;2.50;;;;;;;37.35;16.88;94306.72;5115114;28;20047;-75
2021/07/03 08:41:42;;;;;;;3.05;2.10;;;;;;;37.37;17.39;94314.44;5097737;28;20043;-74
2021/07/03 08:44:13;;;;;;;4.15;2.00;;;;;;;37.18;17.37;94302.81;5097558;28;20532;-75
2021/07/03 08:46:45;;;;;;;4.00;2.28;;;;;;;37.01;17.34;94299.69;5118266;27;20047;-75
2021/07/03 08:49:13;;;;;;;2.10;1.77;;;;;;;36.74;17.88;94297.75;5114952;28;20060;-75
2021/07/03 08:51:42;;;;;;;3.10;1.60;;;;;;;36.61;17.62;94300.63;5114482;28;20393;-75
2021/07/03 08:54:09;;;;;;;2.13;1.80;;;;;;;36.39;17.71;94300.06;5115869;28;20420;-74
2021/07/03 08:56:36;;;;;;;3.97;1.65;;;;;;;36.27;17.96;94295.50;5096930;28;20043;-74
2021/07/03 08:59:14;;;;;;;2.40;1.60;;;;;;;36.98;17.58;94301.38;5114407;28;20047;-74
2021/07/03 09:01:55;;;;;;;2.92;1.70;;;;;;;36.83;17.26;94299.72;5115218;28;20051;-75
2021/07/03 09:04:42;;;;;;;2.05;1.50;;;;;;;37.82;16.98;94300.59;5114343;28;20051;-75
2021/07/03 09:07:21;;;;;;;2.15;1.70;;;;;;;37.80;16.83;94300.31;5103194;28;20492;-75
2021/07/03 09:09:52;;;;;;;4.90;1.80;;;;;;;38.05;16.67;94296.34;5114848;28;20454;-75
2021/07/03 09:12:31;;;;;;;1.85;1.65;;;;;;;37.75;17.02;94300.94;5114984;28;20040;-75
2021/07/03 09:15:13;;;;;;;1.70;1.60;;;;;;;37.24;17.66;94296.28;5115109;28;20078;-75
2021/07/03 09:17:56;;;;;;;3.35;1.90;;;;;;;37.72;16.95;94298.38;5113700;28;20043;-76
2021/07/03 09:20:29;;;;;;;2.65;1.90;;;;;;;37.56;17.29;94297.53;5115015;28;20433;-74
2021/07/03 09:23:05;;;;;;;3.92;2.10;;;;;;;37.09;17.62;94295.44;5115064;28;20055;-75
2021/07/03 09:25:32;;;;;;;5.72;2.42;;;;;;;37.47;16.96;94294.06;5114017;28;20078;-75
2021/07/03 09:28:06;;;;;;;3.20;2.30;;;;;;;37.45;16.61;94296.50;5120938;28;20461;-75
2021/07/03 09:30:33;;;;;;;3.20;2.40;;;;;;;37.40;16.98;94297.16;5134974;28;20047;-74
2021/07/03 09:33:00;;;;;;;3.05;2.00;;;;;;;37.33;17.28;94293.53;5134755;28;20050;-75
2021/07/03 09:35:27;;;;;;;2.63;2.25;;;;;;;37.28;16.61;94291.44;5135432;28;20077;-75
2021/07/03 09:38:06;;;;;;;3.03;2.22;;;;;;;37.56;16.59;94294.81;5121664;28;20055;-75
2021/07/03 09:40:34;;;;;;;3.47;2.60;;;;;;;37.30;16.82;94293.72;5100657;28;20051;-75
2021/07/03 09:43:12;;;;;;;2.63;2.40;;;;;;;37.59;16.14;94290.41;5099817;28;20047;-74
2021/07/03 09:45:40;;;;;;;3.05;2.70;;;;;;;37.15;17.17;94298.28;5118771;28;20050;-74
2021/07/03 09:48:09;;;;;;;3.33;2.30;;;;;;;37.17;17.14;94285.69;5094994;28;20044;-75
2021/07/03 09:50:38;;;;;;;3.72;2.80;;;;;;;37.37;16.86;94282.47;5117902;28;20043;-75
2021/07/03 09:53:07;;;;;;;2.85;2.65;;;;;;;37.43;16.85;94282.59;5100290;28;20059;-75
2021/07/03 09:55:37;;;;;;;5.28;2.88;;;;;;;37.28;17.13;94280.56;5118621;28;20043;-75
2021/07/03 09:58:05;;;;;;;3.45;3.15;;;;;;;34.83;19.53;94269.66;5112953;27;20047;-75
2021/07/03 10:00:32;;;;;;;3.53;3.03;;;;;;;35.94;18.41;94274.34;5097706;28;20044;-74
2021/07/03 10:02:59;;;;;;;3.17;2.40;;;;;;;37.01;17.53;94275.19;5105370;28;20047;-74
2021/07/03 10:05:27;;;;;;;3.88;2.38;;;;;;;37.41;16.64;94268.69;5101930;28;20051;-75
2021/07/03 10:08:06;;;;;;;3.15;2.55;;;;;;;38.06;16.27;94275.28;5085012;28;20071;-74
2021/07/03 10:10:34;;;;;;;4.25;2.45;;;;;;;37.56;16.50;94269.50;5118116;28;20047;-75
2021/07/03 10:13:16;;;;;;;3.22;2.70;;;;;;;38.00;16.62;94266.22;5099635;28;20048;-74
2021/07/03 10:15:43;;;;;;;3.30;2.55;;;;;;;38.00;16.33;94272.44;5084315;27;20052;-75
2021/07/03 10:18:19;;;;;;;4.90;2.63;;;;;;;38.20;16.47;94266.41;5130934;27;20484;-75
2021/07/03 10:20:46;;;;;;;3.60;2.50;;;;;;;37.55;16.92;94266.03;5099822;28;20047;-75
2021/07/03 10:23:13;;;;;;;4.45;2.78;;;;;;;37.87;16.77;94274.66;5117797;28;20043;-75
2021/07/03 10:25:50;;;;;;;2.88;2.65;;;;;;;38.77;15.87;94266.19;5117992;28;20362;-75
2021/07/03 10:28:28;;;;;;;2.90;2.70;;;;;;;38.02;16.63;94263.81;5107080;27;20047;-75
2021/07/03 10:31:12;;;;;;;2.88;2.67;;;;;;;38.39;16.26;94250.63;5117671;28;20047;-75
2021/07/03 10:33:51;;;;;;;2.70;2.50;;;;;;;38.38;15.51;94252.59;5117515;28;20043;-75
2021/07/03 10:36:29;;;;;;;2.60;2.40;;;;;;;37.97;15.76;94260.47;5117003;28;20058;-74
2021/07/03 10:38:59;;;;;;;2.80;2.60;;;;;;;38.00;15.61;94255.31;5117458;27;20051;-75
2021/07/03 10:41:29;;;;;;;2.60;2.40;;;;;;;38.36;15.63;94249.59;5117683;28;20054;-74
2021/07/03 10:44:05;;;;;;;4.13;2.20;;;;;;;38.22;15.66;94250.31;5117432;28;20438;-75
2021/07/03 10:46:39;;;;;;;3.00;2.75;;;;;;;38.84;15.19;94250.19;5117401;28;20059;-74
2021/07/03 10:49:09;;;;;;;2.80;2.60;;;;;;;38.59;16.04;94247.25;5116422;28;20066;-74
2021/07/03 10:51:47;;;;;;;4.40;2.43;;;;;;;38.68;14.88;94247.19;5117319;28;20074;-75
2021/07/03 10:54:27;;;;;;;3.30;2.33;;;;;;;38.85;15.55;94248.22;5117013;28;20044;-75
2021/07/03 10:57:07;;;;;;;2.53;2.33;;;;;;;39.20;14.95;94239.34;5107719;28;20044;-75
2021/07/03 10:59:37;;;;;;;2.72;2.33;;;;;;;38.54;15.32;94238.50;5118517;27;20277;-74
2021/07/03 11:02:10;;;;;;;5.30;2.60;;;;;;;38.55;15.77;94237.28;5117138;28;20373;-74
2021/07/03 11:05:11;;;;;;;4.55;2.22;;;;;;;38.38;15.22;94235.47;5116821;28;20039;-75
2021/07/03 11:07:38;;;;;;;2.50;2.20;;;;;;;38.36;15.35;94232.47;5084070;28;20043;-75
2021/07/03 11:10:13;;;;;;;3.85;2.33;;;;;;;38.36;15.32;94222.28;5116821;28;20434;-74
2021/07/03 11:12:50;;;;;;;2.42;2.20;;;;;;;39.21;14.95;94227.19;5098799;28;20373;-74
2021/07/03 11:15:20;;;;;;;3.33;2.45;;;;;;;38.66;15.00;94228.53;5116687;28;20050;-74
2021/07/03 11:17:47;;;;;;;3.20;2.35;;;;;;;38.88;14.54;94243.78;5132417;27;20352;-74
2021/07/03 11:20:29;;;;;;;3.95;2.20;;;;;;;38.76;15.07;94231.91;5116649;28;20043;-74
2021/07/03 11:22:58;;;;;;;4.43;2.45;;;;;;;38.60;15.13;94224.19;5116154;28;20043;-74
2021/07/03 11:25:45;;;;;;;3.75;2.50;;;;;;;38.77;14.97;94227.97;5115669;28;20500;-74
2021/07/03 11:28:17;;;;;;;2.88;2.55;;;;;;;38.18;15.25;94211.53;5119133;27;20047;-74
2021/07/03 11:30:47;;;;;;;2.50;2.30;;;;;;;38.13;15.66;94223.81;5100339;28;20058;-74
2021/07/03 11:33:15;;;;;;;2.95;2.75;;;;;;;38.49;15.61;94217.28;5103198;28;20039;-74
2021/07/03 11:35:50;;;;;;;3.10;2.80;;;;;;;38.53;14.93;94219.88;5116601;28;20078;-75
2021/07/03 11:38:22;;;;;;;4.13;2.75;;;;;;;38.75;15.22;94224.94;5116351;28;20047;-75
2021/07/03 11:40:54;;;;;;;3.53;2.90;;;;;;;38.37;15.49;94223.78;5116290;28;20472;-75
2021/07/03 11:43:22;;;;;;;3.42;2.75;;;;;;;38.96;14.54;94210.13;5116210;28;20441;-74
2021/07/03 11:45:51;;;;;;;4.55;3.03;;;;;;;38.66;14.70;94211.41;5117577;27;20731;-74